createdAt,value
2022-08-29T00:01:49.996Z,98955.03
2022-08-29T00:04:16.891Z,98956.66
2022-08-29T00:06:43.750Z,98950.78
2022-08-29T00:09:10.568Z,98955.75
2022-08-29T00:11:40.579Z,98956.88
2022-08-29T00:14:20.994Z,98953.78
2022-08-29T00:16:51.171Z,98949.91
2022-08-29T00:19:21.732Z,98949.09
2022-08-29T00:21:48.659Z,98958.59
2022-08-29T00:24:17.097Z,98952.41
2022-08-29T00:26:43.935Z,98963.38
2022-08-29T00:29:11.141Z,98962.81
2022-08-29T00:31:38.741Z,98959.84
2022-08-29T00:34:05.638Z,98961.81
2022-08-29T00:36:32.943Z,98964.66
2022-08-29T00:38:59.811Z,98959.50
2022-08-29T00:41:26.696Z,98966.59
2022-08-29T00:43:53.640Z,98956.41
2022-08-29T00:46:55.513Z,98965.91
2022-08-29T00:49:42.752Z,98959.06
2022-08-29T00:52:33.599Z,98962.09
2022-08-29T00:55:09.899Z,98959.91
2022-08-29T00:58:14.051Z,98956.41
2022-08-29T01:00:43.623Z,98962.69
2022-08-29T01:03:10.871Z,98962.00
2022-08-29T01:05:38.144Z,98963.16
2022-08-29T01:08:06.862Z,98970.91
2022-08-29T01:10:54.434Z,98968.50
2022-08-29T01:13:35.799Z,98966.78
2022-08-29T01:16:05.467Z,98968.25
2022-08-29T01:18:37.717Z,98976.34
2022-08-29T01:21:16.498Z,98977.25
2022-08-29T01:24:09.905Z,98965.56
2022-08-29T01:26:37.523Z,98959.63
2022-08-29T01:29:04.691Z,98964.44
2022-08-29T01:31:56.796Z,98970.16
2022-08-29T01:34:30.491Z,98967.88
2022-08-29T01:37:03.481Z,98967.41
2022-08-29T01:39:38.753Z,98969.03
2022-08-29T01:42:11.486Z,98970.41
2022-08-29T01:44:39.922Z,98977.72
2022-08-29T01:47:08.861Z,98970.31
2022-08-29T01:49:38.786Z,98973.03
2022-08-29T01:52:08.957Z,98975.66
2022-08-29T01:54:36.400Z,98984.06
2022-08-29T01:57:03.897Z,98977.84
2022-08-29T01:59:31.901Z,98976.22
2022-08-29T02:02:38.279Z,98979.00
2022-08-29T02:05:06.493Z,98973.63
2022-08-29T02:07:33.401Z,98972.47
2022-08-29T02:10:00.323Z,98979.81
2022-08-29T02:12:27.432Z,98976.94
2022-08-29T02:14:54.322Z,98976.84
2022-08-29T02:17:21.487Z,98978.84
2022-08-29T02:19:48.324Z,98983.66
2022-08-29T02:22:24.385Z,98982.31
2022-08-29T02:24:51.240Z,98984.38
2022-08-29T02:27:20.664Z,98978.13
2022-08-29T02:29:47.507Z,98975.25
2022-08-29T02:32:16.564Z,98968.63
2022-08-29T02:34:48.425Z,98968.97
2022-08-29T02:37:16.842Z,98970.28
2022-08-29T02:39:43.785Z,98965.31
2022-08-29T02:42:10.710Z,98976.38
2022-08-29T02:44:38.188Z,98976.38
2022-08-29T02:47:05.375Z,98976.25
2022-08-29T02:49:32.195Z,98987.75
2022-08-29T02:51:59.453Z,98984.06
2022-08-29T02:54:26.341Z,98977.72
2022-08-29T02:56:53.137Z,98977.03
2022-08-29T02:59:19.935Z,98983.66
2022-08-29T03:01:46.786Z,98978.59
2022-08-29T03:04:13.677Z,98986.34
2022-08-29T03:06:40.468Z,98976.53
2022-08-29T03:09:07.360Z,98987.47
2022-08-29T03:11:35.615Z,98982.66
2022-08-29T03:14:27.820Z,98974.00
2022-08-29T03:16:54.939Z,98983.53
2022-08-29T03:19:22.814Z,98984.19
2022-08-29T03:21:49.666Z,98980.31
2022-08-29T03:24:16.469Z,98980.78
2022-08-29T03:26:56.754Z,98979.66
2022-08-29T03:29:24.905Z,98977.59
2022-08-29T03:31:51.783Z,98977.31
2022-08-29T03:34:18.731Z,98973.97
2022-08-29T03:37:09.285Z,98973.84
2022-08-29T03:39:37.876Z,98973.66
2022-08-29T03:42:06.523Z,98983.94
2022-08-29T03:44:36.306Z,98982.78
2022-08-29T03:47:04.510Z,98988.31
2022-08-29T03:49:31.488Z,98979.84
2022-08-29T03:51:58.933Z,98976.97
2022-08-29T03:54:26.102Z,98978.09
2022-08-29T03:56:53.434Z,98975.97
2022-08-29T03:59:20.539Z,98981.59
2022-08-29T04:01:48.403Z,98985.31
2022-08-29T04:04:36.475Z,98984.84
2022-08-29T04:07:06.466Z,98988.22
2022-08-29T04:09:33.388Z,98990.66
2022-08-29T04:12:00.321Z,98989.53
2022-08-29T04:14:27.283Z,98987.75
2022-08-29T04:16:58.034Z,98990.38
2022-08-29T04:19:24.924Z,98993.16
2022-08-29T04:21:51.730Z,98995.88
2022-08-29T04:24:19.924Z,98993.63
2022-08-29T04:26:46.796Z,98997.63
2022-08-29T04:29:13.878Z,98998.63
2022-08-29T04:31:43.542Z,99003.91
2022-08-29T04:34:12.910Z,99005.50
2022-08-29T04:36:42.857Z,99007.09
2022-08-29T04:39:10.240Z,99008.59
2022-08-29T04:41:39.197Z,99002.16
2022-08-29T04:44:08.368Z,99004.44
2022-08-29T04:46:35.656Z,99000.59
2022-08-29T04:49:04.556Z,99003.69
2022-08-29T04:51:34.703Z,98993.22
2022-08-29T04:54:04.113Z,98994.72
2022-08-29T04:56:31.227Z,98996.84
2022-08-29T04:58:58.477Z,98995.91
2022-08-29T05:01:27.244Z,99007.63
2022-08-29T05:03:55.261Z,99010.84
2022-08-29T05:06:24.078Z,99008.25
2022-08-29T05:08:58.745Z,99013.38
2022-08-29T05:11:31.925Z,99010.03
2022-08-29T05:14:00.328Z,99012.25
2022-08-29T05:16:29.866Z,99021.41
2022-08-29T05:18:58.458Z,99022.72
2022-08-29T05:21:35.183Z,99031.44
2022-08-29T05:24:09.553Z,99025.31
2022-08-29T05:26:41.628Z,99020.03
2022-08-29T05:29:11.143Z,99026.56
2022-08-29T05:31:41.820Z,99020.28
2022-08-29T05:34:32.394Z,99026.22
2022-08-29T05:37:17.489Z,99030.56
2022-08-29T05:39:44.356Z,99030.25
2022-08-29T05:42:12.572Z,99021.88
2022-08-29T05:44:40.570Z,99024.91
2022-08-29T05:47:11.185Z,99025.56
2022-08-29T05:49:41.193Z,99026.69
2022-08-29T05:52:09.533Z,99030.50
2022-08-29T05:54:41.142Z,99033.38
2022-08-29T05:57:15.354Z,99031.44
2022-08-29T05:59:45.422Z,99042.38
2022-08-29T06:02:13.043Z,99042.06
2022-08-29T06:04:43.014Z,99047.66
2022-08-29T06:07:10.933Z,99040.56
2022-08-29T06:09:41.312Z,99039.44
2022-08-29T06:12:12.645Z,99048.13
2022-08-29T06:14:39.766Z,99050.50
2022-08-29T06:17:09.189Z,99047.16
2022-08-29T06:19:39.367Z,99043.94
2022-08-29T06:22:10.316Z,99051.44
2022-08-29T06:24:39.298Z,99053.53
2022-08-29T06:27:06.848Z,99049.31
2022-08-29T06:29:36.277Z,99050.19
2022-08-29T06:32:12.117Z,99047.03
2022-08-29T06:34:39.310Z,99047.97
2022-08-29T06:37:06.220Z,99048.25
2022-08-29T06:39:33.296Z,99048.97
2022-08-29T06:42:00.239Z,99051.03
2022-08-29T06:44:30.671Z,99046.47
2022-08-29T06:46:59.128Z,99046.75
2022-08-29T06:49:27.709Z,99047.00
2022-08-29T06:51:58.402Z,99047.25
2022-08-29T06:54:28.824Z,99046.00
2022-08-29T06:56:58.112Z,99054.94
2022-08-29T06:59:25.956Z,99056.75
2022-08-29T07:01:55.135Z,99053.81
2022-08-29T07:04:22.434Z,99047.75
2022-08-29T07:06:53.475Z,99061.25
2022-08-29T07:09:20.630Z,99054.84
2022-08-29T07:11:47.637Z,99061.53
2022-08-29T07:14:14.699Z,99066.91
2022-08-29T07:16:42.528Z,99062.56
2022-08-29T07:19:10.578Z,99065.63
2022-08-29T07:21:38.685Z,99071.09
2022-08-29T07:24:06.836Z,99064.78
2022-08-29T07:26:42.483Z,99071.84
2022-08-29T07:29:20.247Z,99075.47
2022-08-29T07:31:48.437Z,99074.75
2022-08-29T07:34:15.726Z,99074.34
2022-08-29T07:36:43.293Z,99073.16
2022-08-29T07:39:16.410Z,99067.75
2022-08-29T07:41:45.180Z,99068.56
2022-08-29T07:44:13.872Z,99073.72
2022-08-29T07:46:41.565Z,99077.31
2022-08-29T07:49:09.053Z,99073.03
2022-08-29T07:51:36.375Z,99073.09
2022-08-29T07:54:04.494Z,99073.13
2022-08-29T07:56:40.984Z,99072.00
2022-08-29T07:59:08.638Z,99075.19
2022-08-29T08:01:36.598Z,99074.09
2022-08-29T08:04:04.461Z,99076.91
2022-08-29T08:06:31.349Z,99070.19
2022-08-29T08:09:01.417Z,99070.38
2022-08-29T08:11:28.578Z,99067.69
2022-08-29T08:13:57.538Z,99069.34
2022-08-29T08:16:27.510Z,99071.28
2022-08-29T08:18:55.864Z,99070.25
2022-08-29T08:21:25.610Z,99065.25
2022-08-29T08:23:53.809Z,99069.75
2022-08-29T08:26:21.754Z,99069.97
2022-08-29T08:28:49.335Z,99061.44
2022-08-29T08:31:18.304Z,99074.38
2022-08-29T08:33:46.819Z,99071.03
2022-08-29T08:36:28.704Z,99071.56
2022-08-29T08:38:58.253Z,99076.81
2022-08-29T08:41:44.712Z,99078.84
2022-08-29T08:44:49.494Z,99071.41
2022-08-29T08:47:25.897Z,99070.19
2022-08-29T08:50:05.835Z,99074.94
2022-08-29T08:56:46.414Z,99077.50
2022-08-29T08:59:28.804Z,99076.81
2022-08-29T09:02:09.047Z,99083.25
2022-08-29T09:05:35.629Z,99080.19
2022-08-29T09:08:42.774Z,99086.56
2022-08-29T09:11:54.833Z,99091.38
2022-08-29T09:15:07.431Z,99088.22
2022-08-29T09:17:57.663Z,99090.59
2022-08-29T09:20:30.704Z,99089.03
2022-08-29T09:23:13.436Z,99088.25
2022-08-29T09:25:40.546Z,99088.19
2022-08-29T09:28:08.927Z,99081.44
2022-08-29T09:31:22.743Z,99092.16
2022-08-29T09:34:01.322Z,99083.03
2022-08-29T09:36:53.475Z,99083.78
2022-08-29T09:39:32.437Z,99074.19
2022-08-29T09:42:13.818Z,99078.91
2022-08-29T09:44:53.335Z,99071.38
2022-08-29T09:47:29.940Z,99077.31
2022-08-29T09:50:11.890Z,99071.59
2022-08-29T09:52:56.761Z,99063.22
2022-08-29T09:55:42.509Z,99070.31
2022-08-29T09:58:21.367Z,99066.72
2022-08-29T10:01:06.358Z,99071.50
2022-08-29T10:03:40.523Z,99071.91
2022-08-29T10:06:21.055Z,99064.66
2022-08-29T10:09:23.863Z,99071.84
2022-08-29T10:11:58.088Z,99062.28
2022-08-29T10:14:49.724Z,99068.66
2022-08-29T10:17:55.838Z,99062.28
2022-08-29T10:20:40.813Z,99074.06
2022-08-29T10:23:55.739Z,99065.97
2022-08-29T10:26:37.274Z,99070.97
2022-08-29T10:29:15.846Z,99066.53
2022-08-29T10:31:55.901Z,99056.06
2022-08-29T10:35:05.942Z,99060.97
2022-08-29T10:37:53.286Z,99056.63
2022-08-29T10:40:43.196Z,99054.22
2022-08-29T10:43:41.689Z,99053.31
2022-08-29T10:46:38.731Z,99064.19
2022-08-29T10:49:36.108Z,99053.19
2022-08-29T10:52:33.979Z,99051.56
2022-08-29T10:55:49.028Z,99050.25
2022-08-29T10:58:44.085Z,99046.25
2022-08-29T11:01:33.250Z,99043.16
2022-08-29T11:07:39.745Z,99037.41
2022-08-29T11:10:17.795Z,99041.75
2022-08-29T11:12:52.232Z,99039.75
2022-08-29T11:15:26.295Z,99042.69
2022-08-29T11:18:24.521Z,99039.75
2022-08-29T11:20:59.325Z,99034.91
2022-08-29T11:23:44.366Z,99037.91
2022-08-29T11:26:58.164Z,99031.03
2022-08-29T11:30:03.183Z,99036.47
2022-08-29T11:33:12.740Z,99026.47
2022-08-29T11:36:10.277Z,99023.56
2022-08-29T11:39:05.145Z,99019.06
2022-08-29T11:41:40.833Z,99023.56
2022-08-29T11:44:31.612Z,99017.47
2022-08-29T11:47:00.141Z,99017.09
2022-08-29T11:49:43.249Z,99015.47
2022-08-29T11:52:12.649Z,99028.38
2022-08-29T11:54:40.012Z,99023.88
2022-08-29T11:57:09.945Z,99024.19
2022-08-29T11:59:49.056Z,99003.84
2022-08-29T12:02:28.218Z,99004.88
2022-08-29T12:05:02.423Z,99004.72
2022-08-29T12:08:00.414Z,99013.28
2022-08-29T12:10:53.043Z,98993.88
2022-08-29T12:13:44.868Z,99008.47
2022-08-29T12:16:16.037Z,98995.09
2022-08-29T12:18:54.932Z,98996.56
2022-08-29T12:21:54.479Z,98987.34
2022-08-29T12:24:41.022Z,98992.41
2022-08-29T12:28:18.140Z,98990.97
2022-08-29T12:30:49.198Z,98993.47
2022-08-29T12:34:09.085Z,98992.69
2022-08-29T12:36:57.084Z,98996.13
2022-08-29T12:40:09.580Z,98995.44
2022-08-29T12:42:39.383Z,98981.09
2022-08-29T12:45:27.019Z,98984.84
2022-08-29T12:48:00.480Z,98965.50
2022-08-29T12:50:45.133Z,98965.09
2022-08-29T12:53:33.485Z,98974.94
2022-08-29T12:56:20.829Z,98963.03
2022-08-29T12:59:00.898Z,98957.88
2022-08-29T13:01:38.003Z,98961.28
2022-08-29T13:04:11.287Z,98960.06
2022-08-29T13:07:00.881Z,98958.59
2022-08-29T13:09:34.887Z,98951.44
2022-08-29T13:12:27.452Z,98945.41
2022-08-29T13:15:06.900Z,98943.03
2022-08-29T13:17:42.674Z,98936.19
2022-08-29T13:20:49.258Z,98938.88
2022-08-29T13:23:27.761Z,98939.47
2022-08-29T13:26:09.970Z,98957.44
2022-08-29T13:29:00.096Z,98950.22
2022-08-29T13:31:36.019Z,98952.84
2022-08-29T13:34:20.659Z,98945.81
2022-08-29T13:36:59.225Z,98934.53
2022-08-29T13:39:41.418Z,98938.69
2022-08-29T13:42:34.282Z,98947.44
2022-08-29T13:45:11.916Z,98937.38
2022-08-29T13:47:58.836Z,98923.69
2022-08-29T13:50:27.712Z,98927.03
2022-08-29T13:52:57.315Z,98921.47
2022-08-29T13:55:25.772Z,98921.69
2022-08-29T13:57:55.457Z,98927.97
2022-08-29T14:00:32.385Z,98924.97
2022-08-29T14:03:05.441Z,98912.44
2022-08-29T14:05:33.037Z,98915.44
2022-08-29T14:07:59.993Z,98912.75
2022-08-29T14:10:27.060Z,98911.72
2022-08-29T14:12:53.927Z,98911.53
2022-08-29T14:15:21.234Z,98903.88
2022-08-29T14:17:49.021Z,98897.94
2022-08-29T14:20:18.800Z,98907.84
2022-08-29T14:22:47.025Z,98900.47
2022-08-29T14:25:17.656Z,98908.13
2022-08-29T14:27:47.462Z,98898.53
2022-08-29T14:30:20.924Z,98886.25
2022-08-29T14:32:47.830Z,98894.09
2022-08-29T14:35:25.686Z,98894.31
2022-08-29T14:37:54.797Z,98890.38
2022-08-29T14:40:22.669Z,98890.69
2022-08-29T14:42:49.974Z,98889.28
2022-08-29T14:45:16.950Z,98885.34
2022-08-29T14:47:45.419Z,98883.91
2022-08-29T14:50:14.327Z,98875.72
2022-08-29T14:52:42.590Z,98881.53
2022-08-29T14:55:12.246Z,98876.81
2022-08-29T14:57:42.130Z,98870.16
2022-08-29T15:00:14.661Z,98862.56
2022-08-29T15:02:42.693Z,98857.97
2022-08-29T15:05:11.867Z,98854.84
2022-08-29T15:07:40.127Z,98849.34
2022-08-29T15:10:08.933Z,98853.06
2022-08-29T15:12:36.049Z,98852.81
2022-08-29T15:15:05.725Z,98845.28
2022-08-29T15:17:32.979Z,98845.28
2022-08-29T15:22:47.498Z,98840.22
2022-08-29T15:25:14.649Z,98840.31
2022-08-29T15:27:42.409Z,98845.53
2022-08-29T15:30:11.245Z,98842.53
2022-08-29T15:32:38.975Z,98835.91
2022-08-29T15:35:07.566Z,98841.16
2022-08-29T15:37:41.149Z,98831.81
2022-08-29T15:40:13.124Z,98834.75
2022-08-29T15:42:40.983Z,98825.28
2022-08-29T15:45:12.596Z,98835.44
2022-08-29T15:47:40.402Z,98821.75
2022-08-29T15:50:13.365Z,98823.09
2022-08-29T15:52:40.183Z,98829.97
2022-08-29T15:55:07.968Z,98839.22
2022-08-29T15:57:42.345Z,98834.53
2022-08-29T16:00:30.111Z,98832.47
2022-08-29T16:03:00.571Z,98830.94
2022-08-29T16:05:28.562Z,98830.41
2022-08-29T16:07:55.394Z,98819.72
2022-08-29T16:10:22.233Z,98821.78
2022-08-29T16:12:49.113Z,98825.53
2022-08-29T16:15:16.691Z,98814.09
2022-08-29T16:17:43.621Z,98814.63
2022-08-29T16:20:11.596Z,98817.09
2022-08-29T16:22:40.689Z,98809.25
2022-08-29T16:25:12.420Z,98808.94
2022-08-29T16:27:39.482Z,98808.25
2022-08-29T16:30:09.801Z,98807.16
2022-08-29T16:32:37.582Z,98807.16
2022-08-29T16:35:06.271Z,98802.50
2022-08-29T16:37:33.812Z,98802.97
2022-08-29T16:40:01.603Z,98804.53
2022-08-29T16:42:30.561Z,98799.78
2022-08-29T16:44:57.917Z,98795.94
2022-08-29T16:47:24.701Z,98802.41
2022-08-29T16:49:53.521Z,98805.19
2022-08-29T16:52:20.444Z,98801.31
2022-08-29T16:54:47.453Z,98800.56
2022-08-29T16:57:16.762Z,98802.56
2022-08-29T16:59:43.730Z,98792.66
2022-08-29T17:02:10.674Z,98807.91
2022-08-29T17:04:38.464Z,98805.59
2022-08-29T17:07:05.673Z,98803.25
2022-08-29T17:09:32.882Z,98799.69
2022-08-29T17:12:03.434Z,98794.56
2022-08-29T17:14:30.880Z,98798.19
2022-08-29T17:16:57.954Z,98796.66
2022-08-29T17:19:26.547Z,98807.00
2022-08-29T17:21:54.055Z,98804.66
2022-08-29T17:24:21.272Z,98810.75
2022-08-29T17:26:48.729Z,98807.16
2022-08-29T17:29:16.501Z,98806.03
2022-08-29T17:31:44.327Z,98796.97
2022-08-29T17:34:12.111Z,98803.38
2022-08-29T17:36:41.784Z,98805.00
2022-08-29T17:39:09.163Z,98807.84
2022-08-29T17:41:37.267Z,98809.06
2022-08-29T17:44:08.157Z,98813.50
2022-08-29T17:46:35.153Z,98810.34
2022-08-29T17:49:07.401Z,98813.94
2022-08-29T17:51:36.676Z,98815.59
2022-08-29T17:54:08.329Z,98817.22
2022-08-29T17:56:45.970Z,98820.47
2022-08-29T17:59:16.001Z,98818.50
2022-08-29T18:01:43.363Z,98821.75
2022-08-29T18:04:11.171Z,98815.47
2022-08-29T18:06:38.629Z,98813.09
2022-08-29T18:09:07.057Z,98823.06
2022-08-29T18:11:37.711Z,98823.53
2022-08-29T18:14:04.538Z,98819.56
2022-08-29T18:16:31.512Z,98825.53
2022-08-29T18:18:58.614Z,98822.38
2022-08-29T18:21:26.037Z,98833.47
2022-08-29T18:23:53.440Z,98835.47
2022-08-29T18:26:22.847Z,98828.75
2022-08-29T18:28:50.130Z,98835.50
2022-08-29T18:31:18.979Z,98841.81
2022-08-29T18:34:00.186Z,98835.84
2022-08-29T18:36:29.368Z,98844.13
2022-08-29T18:38:57.039Z,98850.00
2022-08-29T18:41:23.881Z,98854.72
2022-08-29T18:43:51.846Z,98848.78
2022-08-29T18:46:18.829Z,98851.91
2022-08-29T18:48:46.335Z,98851.94
2022-08-29T18:51:14.605Z,98863.00
2022-08-29T18:53:42.106Z,98867.31
2022-08-29T18:56:09.229Z,98881.06
2022-08-29T18:58:37.310Z,98878.25
2022-08-29T19:01:27.987Z,98888.09
2022-08-29T19:04:02.222Z,98882.09
2022-08-29T19:06:29.314Z,98884.06
2022-08-29T19:08:57.137Z,98887.13
2022-08-29T19:11:25.277Z,98887.09
2022-08-29T19:13:52.847Z,98889.31
2022-08-29T19:16:22.679Z,98886.88
2022-08-29T19:18:50.575Z,98891.06
2022-08-29T19:21:17.423Z,98885.75
2022-08-29T19:23:52.197Z,98889.41
2022-08-29T19:26:29.139Z,98887.91
2022-08-29T19:31:27.673Z,98886.88
2022-08-29T19:33:55.045Z,98889.22
2022-08-29T19:36:23.355Z,98889.88
2022-08-29T19:38:50.850Z,98890.81
2022-08-29T19:41:18.204Z,98901.06
2022-08-29T19:43:45.436Z,98899.09
2022-08-29T19:46:20.003Z,98907.63
2022-08-29T19:48:51.309Z,98906.03
2022-08-29T19:51:24.382Z,98912.75
2022-08-29T19:53:57.204Z,98909.09
2022-08-29T19:56:26.458Z,98906.41
2022-08-29T19:58:53.962Z,98915.53
2022-08-29T20:01:21.263Z,98914.59
2022-08-29T20:03:48.402Z,98914.59
2022-08-29T20:06:18.654Z,98915.34
2022-08-29T20:08:47.548Z,98921.09
2022-08-29T20:11:24.603Z,98922.94
2022-08-29T20:13:57.270Z,98923.56
2022-08-29T20:16:29.993Z,98924.47
2022-08-29T20:18:57.564Z,98920.59
2022-08-29T20:21:25.511Z,98925.06
2022-08-29T20:23:57.737Z,98930.69
2022-08-29T20:26:34.545Z,98930.47
2022-08-29T20:29:06.017Z,98926.84
2022-08-29T20:31:34.458Z,98921.06
2022-08-29T20:34:01.962Z,98926.53
2022-08-29T20:36:47.811Z,98926.41
2022-08-29T20:39:18.023Z,98923.97
2022-08-29T20:41:55.604Z,98919.53
2022-08-29T20:44:32.929Z,98927.03
2022-08-29T20:47:00.667Z,98925.34
2022-08-29T20:49:27.644Z,98928.94
2022-08-29T20:51:54.616Z,98941.72
2022-08-29T20:54:24.218Z,98933.34
2022-08-29T20:56:52.070Z,98945.97
2022-08-29T20:59:19.888Z,98946.28
2022-08-29T21:01:47.893Z,98942.66
2022-08-29T21:04:34.514Z,98943.78
2022-08-29T21:07:09.600Z,98956.53
2022-08-29T21:09:40.250Z,98954.81
2022-08-29T21:12:08.030Z,98964.69
2022-08-29T21:14:34.939Z,98961.22
2022-08-29T21:17:05.262Z,98958.47
2022-08-29T21:19:33.128Z,98960.81
2022-08-29T21:22:05.776Z,98964.44
2022-08-29T21:24:33.804Z,98964.25
2022-08-29T21:27:00.673Z,98976.31
2022-08-29T21:29:28.420Z,98974.19
2022-08-29T21:31:55.275Z,98972.25
2022-08-29T21:34:23.318Z,98972.47
2022-08-29T21:36:50.852Z,98964.63
2022-08-29T21:39:28.395Z,98961.41
2022-08-29T21:41:57.852Z,98966.53
2022-08-29T21:44:27.809Z,98965.41
2022-08-29T21:46:54.777Z,98971.38
2022-08-29T21:49:21.935Z,98961.94
2022-08-29T21:51:49.467Z,98968.59
2022-08-29T21:54:18.083Z,98963.09
2022-08-29T21:56:46.527Z,98965.16
2022-08-29T21:59:16.361Z,98965.34
2022-08-29T22:01:45.546Z,98970.78
2022-08-29T22:04:19.435Z,98974.53
2022-08-29T22:06:57.167Z,98974.63
2022-08-29T22:09:24.053Z,98965.94
2022-08-29T22:11:52.030Z,98972.06
2022-08-29T22:14:18.890Z,98976.13
2022-08-29T22:16:45.746Z,98960.31
2022-08-29T22:19:16.503Z,98971.13
2022-08-29T22:21:49.725Z,98962.50
2022-08-29T22:24:18.136Z,98967.41
2022-08-29T22:26:46.242Z,98963.44
2022-08-29T22:29:15.758Z,98968.78
2022-08-29T22:31:44.613Z,98970.66
2022-08-29T22:34:15.050Z,98978.63
2022-08-29T22:36:42.870Z,98979.69
2022-08-29T22:39:10.387Z,98980.84
2022-08-29T22:41:37.787Z,98985.19
2022-08-29T22:46:54.019Z,98976.34
2022-08-29T22:49:21.400Z,98973.69
2022-08-29T22:51:48.894Z,98971.31
2022-08-29T22:54:34.689Z,98970.97
2022-08-29T22:57:14.524Z,98977.06
2022-08-29T22:59:43.195Z,98969.97
2022-08-29T23:02:12.300Z,98973.16
2022-08-29T23:04:40.101Z,98977.34
2022-08-29T23:07:08.069Z,98973.34
2022-08-29T23:09:41.078Z,98972.03
2022-08-29T23:12:09.831Z,98968.28
2022-08-29T23:14:38.360Z,98958.16
2022-08-29T23:17:07.860Z,98958.06
2022-08-29T23:19:36.730Z,98960.19
2022-08-29T23:22:08.963Z,98960.47
2022-08-29T23:24:36.524Z,98950.97
2022-08-29T23:27:03.766Z,98962.94
2022-08-29T23:29:32.772Z,98960.47
2022-08-29T23:32:00.967Z,98961.97
2022-08-29T23:34:28.156Z,98961.44
2022-08-29T23:36:55.149Z,98965.53
2022-08-29T23:39:22.099Z,98963.47
2022-08-29T23:41:49.478Z,98958.56
2022-08-29T23:44:17.729Z,98966.50
2022-08-29T23:46:44.932Z,98961.78
2022-08-29T23:49:11.874Z,98961.78
2022-08-29T23:51:38.804Z,98964.94
2022-08-29T23:54:05.864Z,98963.44
2022-08-29T23:56:32.808Z,98961.59
2022-08-29T23:59:00.099Z,98955.56
